Time;durP1;ratioP1;P1;durP2;ratioP2;P2;SDS_P1;SDS_P2;PMS_P1;PMS_P2;Temp;Humidity;BMP_temperature;BMP_pressure;BME280_temperature;BME280_humidity;BME280_pressure;Samples;Min_cycle;Max_cycle;Signal;HPM_P1;HPM_P2
2023/09/02 00:02:18;;;;;;;0.40;0.40;;;14.90;99.90;;;;;;5096124;28;20036;-80
2023/09/02 00:04:44;;;;;;;0.50;0.50;;;14.90;99.90;;;;;;5096524;28;20040;-80
2023/09/02 00:07:09;;;;;;;0.30;0.30;;;14.90;99.90;;;;;;5095947;28;20524;-80
2023/09/02 00:09:35;;;;;;;0.40;0.40;;;14.90;99.90;;;;;;5096383;28;20060;-80
2023/09/02 00:12:00;;;;;;;0.43;0.43;;;14.90;99.90;;;;;;5096084;28;20040;-80
2023/09/02 00:14:26;;;;;;;0.30;0.30;;;14.80;99.90;;;;;;5095662;28;20032;-80
2023/09/02 00:16:52;;;;;;;0.40;0.40;;;14.80;99.90;;;;;;5095885;28;20044;-80
2023/09/02 00:19:17;;;;;;;0.40;0.40;;;14.80;99.90;;;;;;5095760;28;20040;-80
2023/09/02 00:21:43;;;;;;;0.30;0.30;;;14.80;99.90;;;;;;5096236;28;20190;-80
2023/09/02 00:24:09;;;;;;;0.50;0.43;;;14.80;99.90;;;;;;5095573;28;20036;-80
2023/09/02 00:26:34;;;;;;;0.50;0.50;;;14.80;99.90;;;;;;5096029;28;20051;-80
2023/09/02 00:29:01;;;;;;;0.43;0.43;;;14.80;99.90;;;;;;5095964;28;20051;-80
2023/09/02 00:31:28;;;;;;;0.50;0.50;;;14.70;99.90;;;;;;5095599;28;20403;-80
2023/09/02 00:33:53;;;;;;;0.50;0.50;;;15.00;99.90;;;;;;5095432;28;20032;-80
2023/09/02 00:36:19;;;;;;;0.40;0.40;;;14.60;99.90;;;;;;5095530;28;20053;-80
2023/09/02 00:38:45;;;;;;;0.65;0.52;;;14.60;99.90;;;;;;5095498;28;20089;-80
2023/09/02 00:41:26;;;;;;;0.40;0.40;;;14.60;99.90;;;;;;5095143;28;20119;-80
2023/09/02 00:43:54;;;;;;;0.60;0.60;;;14.60;99.90;;;;;;5095414;28;20036;-80
2023/09/02 00:46:21;;;;;;;0.43;0.43;;;14.60;99.90;;;;;;5095475;28;20039;-80
2023/09/02 00:48:47;;;;;;;;;;;14.60;99.90;;;;;;5095658;28;20094;-80
2023/09/02 00:51:13;;;;;;;0.50;0.50;;;14.50;99.90;;;;;;5095745;28;19923;-80
2023/09/02 00:53:38;;;;;;;0.70;0.70;;;14.70;99.90;;;;;;5095472;28;20075;-80
2023/09/02 00:56:04;;;;;;;0.67;0.60;;;14.40;99.90;;;;;;5095203;28;20118;-80
2023/09/02 00:58:30;;;;;;;0.50;0.50;;;14.40;99.90;;;;;;5093675;28;20044;-80
2023/09/02 01:00:57;;;;;;;0.68;0.40;;;14.40;99.90;;;;;;5094354;28;20069;-80
2023/09/02 01:03:24;;;;;;;0.47;0.47;;;14.50;99.90;;;;;;5095147;28;20051;-80
2023/09/02 01:05:49;;;;;;;0.40;0.40;;;14.40;99.90;;;;;;5094987;28;20044;-80
2023/09/02 01:08:19;;;;;;;0.47;0.47;;;14.40;99.90;;;;;;5094626;28;20396;-80
2023/09/02 01:10:45;;;;;;;0.30;0.30;;;14.40;99.90;;;;;;5095116;28;20076;-80
2023/09/02 01:13:11;;;;;;;0.40;0.40;;;14.50;99.90;;;;;;5094761;28;20071;-80
2023/09/02 01:15:36;;;;;;;0.40;0.40;;;14.50;99.90;;;;;;5094747;28;20036;-80
2023/09/02 01:18:03;;;;;;;0.43;0.43;;;14.50;99.90;;;;;;5094776;28;20100;-80
2023/09/02 01:20:45;;;;;;;0.30;0.30;;;14.50;99.90;;;;;;5094639;28;20047;-80
2023/09/02 01:23:23;;;;;;;0.40;0.40;;;14.50;99.90;;;;;;5095307;28;20123;-80
2023/09/02 01:26:33;;;;;;;0.80;0.35;;;14.60;99.90;;;;;;5094623;28;20047;-80
2023/09/02 01:29:04;;;;;;;0.40;0.40;;;14.60;99.90;;;;;;5051938;28;20486;-80
2023/09/02 01:31:31;;;;;;;0.65;0.50;;;14.60;99.90;;;;;;5086830;28;20063;-80
2023/09/02 01:33:59;;;;;;;0.40;0.40;;;14.60;99.90;;;;;;5094487;28;20086;-80
2023/09/02 01:36:28;;;;;;;0.50;0.50;;;14.60;99.90;;;;;;5094652;28;20055;-80
2023/09/02 01:38:54;;;;;;;0.50;0.50;;;14.70;99.90;;;;;;5094301;28;20520;-80
2023/09/02 01:41:22;;;;;;;0.35;0.35;;;14.70;99.90;;;;;;5094256;28;20086;-80
2023/09/02 01:43:48;;;;;;;0.30;0.30;;;14.70;99.90;;;;;;5094561;28;20491;-80
2023/09/02 01:46:15;;;;;;;0.45;0.45;;;14.70;99.90;;;;;;5094405;28;20105;-80
2023/09/02 01:48:41;;;;;;;0.40;0.40;;;14.60;99.90;;;;;;5094156;28;20044;-80
2023/09/02 01:51:07;;;;;;;0.30;0.30;;;14.70;99.90;;;;;;5094154;28;20042;-80
2023/09/02 01:53:33;;;;;;;0.68;0.68;;;14.70;99.90;;;;;;5093995;28;20036;-80
2023/09/02 01:56:00;;;;;;;0.57;0.57;;;14.70;99.90;;;;;;5094791;28;20089;-80
2023/09/02 01:58:26;;;;;;;1.00;0.60;;;14.70;99.90;;;;;;5094046;28;20043;-80
2023/09/02 02:00:51;;;;;;;0.68;0.68;;;14.70;99.90;;;;;;5093926;28;20123;-80
2023/09/02 02:03:34;;;;;;;0.82;0.65;;;14.70;99.90;;;;;;5094114;28;20035;-80
2023/09/02 02:06:02;;;;;;;0.50;0.50;;;14.70;99.90;;;;;;5094413;28;20048;-80
2023/09/02 02:08:55;;;;;;;0.60;0.60;;;14.70;99.90;;;;;;5093427;28;20088;-80
2023/09/02 02:11:22;;;;;;;0.85;0.85;;;14.60;99.90;;;;;;5093490;28;20040;-80
2023/09/02 02:13:51;;;;;;;0.40;0.40;;;14.50;99.90;;;;;;5093845;28;20040;-80
2023/09/02 02:16:17;;;;;;;0.50;0.45;;;14.50;99.90;;;;;;5092587;28;20083;-80
2023/09/02 02:18:42;;;;;;;0.67;0.60;;;14.50;99.90;;;;;;5093641;28;20079;-80
2023/09/02 02:21:08;;;;;;;0.50;0.50;;;14.50;99.90;;;;;;5094228;28;20040;-80
2023/09/02 02:23:34;;;;;;;0.85;0.50;;;14.50;99.90;;;;;;5094072;28;20521;-79
2023/09/02 02:26:04;;;;;;;1.17;1.07;;;14.50;99.90;;;;;;5093752;28;20047;-80
2023/09/02 02:28:30;;;;;;;0.68;0.68;;;14.60;99.90;;;;;;5093794;28;20040;-80
2023/09/02 02:30:58;;;;;;;0.63;0.63;;;14.70;99.90;;;;;;5093657;28;20097;-80
2023/09/02 02:33:25;;;;;;;0.60;0.60;;;14.40;99.90;;;;;;5093521;28;20532;-80
2023/09/02 02:35:51;;;;;;;0.50;0.50;;;14.40;99.90;;;;;;5093793;28;20047;-80
2023/09/02 02:38:17;;;;;;;0.77;0.63;;;14.40;99.90;;;;;;5093573;28;20032;-80
2023/09/02 02:40:42;;;;;;;0.57;0.57;;;14.40;99.90;;;;;;5093846;28;20420;-80
2023/09/02 02:43:09;;;;;;;0.50;0.50;;;14.40;99.90;;;;;;5093653;28;20392;-80
2023/09/02 02:45:34;;;;;;;0.50;0.50;;;14.40;99.90;;;;;;5093611;28;20408;-80
2023/09/02 02:48:00;;;;;;;1.00;0.70;;;14.40;99.90;;;;;;5093604;28;20285;-80
2023/09/02 02:50:26;;;;;;;0.50;0.50;;;14.40;99.90;;;;;;5093889;28;20052;-80
2023/09/02 02:52:51;;;;;;;0.63;0.63;;;14.30;99.90;;;;;;5093378;28;20479;-80
2023/09/02 02:55:17;;;;;;;0.57;0.57;;;14.30;99.90;;;;;;5093477;28;20492;-80
2023/09/02 02:57:47;;;;;;;0.60;0.60;;;14.40;99.90;;;;;;5093490;28;20047;-80
2023/09/02 03:00:13;;;;;;;0.93;0.70;;;14.30;99.90;;;;;;5091892;28;20483;-80
2023/09/02 03:02:39;;;;;;;0.80;0.80;;;14.30;99.90;;;;;;5093289;28;20032;-80
2023/09/02 03:05:04;;;;;;;0.82;0.82;;;14.30;99.90;;;;;;5093404;28;20382;-80
2023/09/02 03:07:30;;;;;;;0.32;0.32;;;14.30;99.90;;;;;;5093361;28;20052;-80
2023/09/02 03:09:56;;;;;;;0.73;0.73;;;14.30;99.90;;;;;;5092168;28;20032;-80
2023/09/02 03:12:21;;;;;;;0.97;0.90;;;14.30;99.90;;;;;;5093373;28;20046;-80
2023/09/02 03:14:48;;;;;;;0.82;0.73;;;14.40;99.90;;;;;;5093170;28;20043;-80
2023/09/02 03:17:14;;;;;;;0.60;0.60;;;14.40;99.90;;;;;;5093531;28;20066;-80
2023/09/02 03:19:44;;;;;;;0.52;0.52;;;14.40;99.90;;;;;;5093341;28;20754;-81
2023/09/02 03:22:09;;;;;;;0.63;0.63;;;14.40;99.90;;;;;;5093454;28;20051;-80
2023/09/02 03:24:35;;;;;;;0.57;0.57;;;14.40;99.90;;;;;;5096915;28;20057;-80
2023/09/02 03:27:03;;;;;;;0.45;0.45;;;14.40;99.90;;;;;;5096845;28;20471;-80
2023/09/02 03:29:29;;;;;;;0.60;0.60;;;14.40;99.90;;;;;;5097000;28;20044;-80
2023/09/02 03:31:55;;;;;;;1.70;0.63;;;14.40;99.90;;;;;;5096782;28;20433;-80
2023/09/02 03:34:20;;;;;;;0.40;0.40;;;14.40;99.90;;;;;;5096647;28;20028;-80
2023/09/02 03:36:46;;;;;;;2.13;0.90;;;14.50;99.90;;;;;;5096647;28;20032;-80
2023/09/02 03:39:12;;;;;;;1.63;0.63;;;14.50;99.90;;;;;;5096408;28;20090;-80
2023/09/02 03:41:38;;;;;;;0.50;0.50;;;14.50;99.90;;;;;;5096587;28;20492;-80
2023/09/02 03:44:04;;;;;;;0.82;0.63;;;14.60;99.90;;;;;;5096548;28;20471;-80
2023/09/02 03:46:29;;;;;;;0.40;0.40;;;14.60;99.90;;;;;;5096493;28;20115;-80
2023/09/02 03:48:55;;;;;;;0.45;0.40;;;14.60;99.90;;;;;;5096616;28;20047;-80
2023/09/02 03:51:21;;;;;;;1.20;0.63;;;14.60;99.90;;;;;;5096335;28;20036;-80
2023/09/02 03:53:47;;;;;;;0.50;0.50;;;14.60;99.90;;;;;;5096395;28;20039;-80
2023/09/02 03:56:12;;;;;;;0.45;0.45;;;14.60;99.90;;;;;;5096274;28;20047;-80
2023/09/02 03:58:39;;;;;;;0.40;0.40;;;14.70;99.90;;;;;;5096243;28;20147;-80
2023/09/02 04:01:04;;;;;;;0.57;0.52;;;14.70;99.90;;;;;;5096230;28;20380;-80
2023/09/02 04:03:35;;;;;;;0.50;0.50;;;14.70;99.90;;;;;;5096147;28;20036;-80
2023/09/02 04:06:01;;;;;;;0.60;0.40;;;15.00;99.90;;;;;;5096027;28;20123;-80
2023/09/02 04:08:27;;;;;;;0.83;0.70;;;14.80;99.90;;;;;;5096082;28;20131;-80
2023/09/02 04:10:54;;;;;;;1.27;0.83;;;14.80;99.90;;;;;;5096011;28;20040;-80
2023/09/02 04:13:24;;;;;;;0.63;0.50;;;14.80;99.90;;;;;;5095418;28;20127;-80
2023/09/02 04:15:54;;;;;;;0.82;0.82;;;14.70;99.90;;;;;;5095964;28;20086;-80
2023/09/02 04:18:19;;;;;;;0.85;0.82;;;14.80;99.90;;;;;;5095907;28;20388;-80
2023/09/02 04:20:45;;;;;;;1.23;0.80;;;14.80;99.90;;;;;;5095849;28;20036;-80
2023/09/02 04:23:11;;;;;;;1.20;1.10;;;14.70;99.90;;;;;;5095855;28;20110;-80
2023/09/02 04:25:47;;;;;;;0.90;0.80;;;14.80;99.90;;;;;;5096161;28;20055;-80
2023/09/02 04:28:13;;;;;;;1.30;0.90;;;14.80;99.90;;;;;;5095687;28;20480;-80
2023/09/02 04:30:39;;;;;;;0.60;0.50;;;14.80;99.90;;;;;;5095964;28;20036;-80
2023/09/02 04:33:05;;;;;;;0.50;0.50;;;14.90;99.90;;;;;;5095281;28;20051;-80
2023/09/02 04:35:38;;;;;;;2.00;0.73;;;14.80;99.90;;;;;;5095620;28;20040;-80
2023/09/02 04:38:05;;;;;;;0.82;0.75;;;14.90;99.90;;;;;;5094370;28;20059;-80
2023/09/02 04:40:31;;;;;;;0.40;0.40;;;14.90;99.90;;;;;;5094213;28;20048;-80
2023/09/02 04:42:57;;;;;;;0.97;0.50;;;14.90;99.90;;;;;;5095328;28;20043;-80
2023/09/02 04:45:22;;;;;;;0.50;0.50;;;14.90;99.90;;;;;;5095165;28;20036;-80
2023/09/02 04:47:49;;;;;;;0.70;0.70;;;14.90;99.90;;;;;;5095276;28;20146;-80
2023/09/02 04:50:14;;;;;;;0.70;0.70;;;14.90;99.90;;;;;;5095126;28;20048;-80
2023/09/02 04:52:41;;;;;;;0.50;0.50;;;14.90;99.90;;;;;;5095115;28;20047;-80
2023/09/02 04:55:07;;;;;;;0.40;0.40;;;14.80;99.90;;;;;;5095045;28;20036;-80
2023/09/02 04:57:36;;;;;;;1.30;1.20;;;15.00;99.90;;;;;;5095002;28;20050;-80
2023/09/02 05:00:02;;;;;;;0.55;0.55;;;15.20;99.90;;;;;;5094986;28;20114;-80
2023/09/02 05:02:28;;;;;;;0.50;0.50;;;15.00;99.90;;;;;;5095001;28;20044;-80
2023/09/02 05:04:53;;;;;;;0.87;0.87;;;15.00;99.90;;;;;;5094851;28;20032;-80
2023/09/02 05:07:19;;;;;;;0.63;0.63;;;15.00;99.90;;;;;;5094924;28;20052;-80
2023/09/02 05:09:44;;;;;;;0.65;0.40;;;15.00;99.90;;;;;;5094789;28;20114;-80
2023/09/02 05:12:10;;;;;;;0.40;0.40;;;15.00;99.90;;;;;;5094865;28;20040;-80
2023/09/02 05:14:38;;;;;;;0.53;0.53;;;15.00;99.90;;;;;;5094417;28;20036;-80
2023/09/02 05:17:03;;;;;;;0.73;0.63;;;15.00;99.90;;;;;;5094688;28;20118;-80
2023/09/02 05:19:29;;;;;;;0.53;0.50;;;15.00;99.90;;;;;;5094788;28;20539;-80
2023/09/02 05:21:57;;;;;;;2.70;0.77;;;15.00;99.90;;;;;;5093454;28;20043;-79
2023/09/02 05:24:23;;;;;;;0.40;0.40;;;15.00;99.90;;;;;;5094532;28;20036;-80
2023/09/02 05:26:49;;;;;;;0.40;0.40;;;15.00;99.90;;;;;;5094546;28;20047;-80
2023/09/02 05:29:14;;;;;;;0.93;0.90;;;14.90;99.90;;;;;;5095020;28;20085;-80
2023/09/02 05:31:40;;;;;;;0.73;0.65;;;15.00;99.90;;;;;;5094515;28;20047;-80
2023/09/02 05:34:06;;;;;;;0.60;0.60;;;15.00;99.90;;;;;;5094499;28;20496;-80
2023/09/02 05:36:31;;;;;;;1.03;0.93;;;15.00;99.90;;;;;;5094329;28;20047;-80
2023/09/02 05:38:57;;;;;;;0.83;0.83;;;15.00;99.90;;;;;;5094350;28;20391;-80
2023/09/02 05:41:24;;;;;;;0.83;0.83;;;15.00;99.90;;;;;;5094060;28;20484;-80
2023/09/02 05:43:50;;;;;;;0.50;0.50;;;15.00;99.90;;;;;;5094658;28;20051;-80
2023/09/02 05:46:16;;;;;;;0.60;0.60;;;15.10;99.90;;;;;;5093628;28;20044;-80
2023/09/02 05:48:41;;;;;;;0.60;0.60;;;15.10;99.90;;;;;;5094119;28;20039;-80
2023/09/02 05:51:07;;;;;;;0.63;0.60;;;15.20;99.90;;;;;;5093885;28;20043;-80
2023/09/02 05:53:33;;;;;;;1.33;0.70;;;15.10;99.90;;;;;;5094026;28;20434;-80
2023/09/02 05:55:58;;;;;;;2.10;0.97;;;15.10;99.90;;;;;;5094063;28;20050;-80
2023/09/02 05:58:26;;;;;;;0.53;0.53;;;15.10;99.90;;;;;;5094007;28;20047;-80
2023/09/02 06:00:51;;;;;;;0.45;0.45;;;15.20;99.90;;;;;;5093921;28;20123;-80
2023/09/02 06:03:17;;;;;;;0.60;0.60;;;15.20;99.90;;;;;;5092816;28;20123;-80
2023/09/02 06:05:42;;;;;;;0.40;0.40;;;15.10;99.90;;;;;;5094159;28;20402;-80
2023/09/02 06:08:08;;;;;;;0.87;0.80;;;15.20;99.90;;;;;;5093455;28;20449;-80
2023/09/02 06:10:34;;;;;;;0.55;0.55;;;15.20;99.90;;;;;;5093854;28;20048;-80
2023/09/02 06:12:59;;;;;;;1.20;1.07;;;15.20;99.90;;;;;;5093773;28;20448;-80
2023/09/02 06:15:25;;;;;;;0.50;0.50;;;15.20;99.90;;;;;;5093897;28;20050;-80
2023/09/02 06:17:51;;;;;;;0.70;0.70;;;15.40;99.90;;;;;;5093804;28;20040;-80
2023/09/02 06:20:20;;;;;;;0.57;0.57;;;15.30;99.90;;;;;;5092882;28;20331;-80
2023/09/02 06:22:46;;;;;;;0.85;0.82;;;15.30;99.90;;;;;;5093837;28;20036;-80
2023/09/02 06:25:12;;;;;;;1.20;0.77;;;15.30;99.90;;;;;;5093808;28;20487;-80
2023/09/02 06:27:37;;;;;;;1.92;1.73;;;15.30;99.90;;;;;;5093538;28;20040;-80
2023/09/02 06:30:04;;;;;;;2.17;0.77;;;15.30;99.90;;;;;;5093892;28;20429;-80
2023/09/02 06:32:30;;;;;;;1.15;0.75;;;15.30;99.90;;;;;;5093647;28;20064;-80
2023/09/02 06:34:55;;;;;;;0.87;0.87;;;15.30;99.90;;;;;;5093655;28;20132;-79
2023/09/02 06:37:21;;;;;;;1.58;1.27;;;15.30;99.90;;;;;;5093713;28;20044;-79
2023/09/02 06:39:53;;;;;;;0.77;0.77;;;15.30;99.90;;;;;;5093596;28;20032;-80
2023/09/02 06:42:18;;;;;;;0.57;0.57;;;15.40;99.90;;;;;;5093339;28;20468;-79
2023/09/02 06:44:47;;;;;;;0.90;0.83;;;15.40;99.90;;;;;;5093290;28;20055;-80
2023/09/02 06:47:13;;;;;;;0.95;0.70;;;15.40;99.90;;;;;;5093402;28;20044;-79
2023/09/02 06:49:39;;;;;;;0.70;0.70;;;15.40;99.90;;;;;;5093655;28;20040;-79
2023/09/02 06:52:05;;;;;;;1.20;1.10;;;15.40;99.90;;;;;;5093521;28;20050;-79
2023/09/02 06:54:30;;;;;;;1.33;0.60;;;15.40;99.90;;;;;;5092200;28;20032;-79
2023/09/02 06:56:56;;;;;;;0.50;0.50;;;15.60;99.90;;;;;;5093880;28;20044;-79
2023/09/02 06:59:25;;;;;;;0.60;0.60;;;15.50;99.90;;;;;;5097279;28;20079;-79
2023/09/02 07:01:51;;;;;;;0.77;0.77;;;15.60;99.90;;;;;;5097455;28;20097;-79
2023/09/02 07:04:17;;;;;;;0.60;0.60;;;15.60;99.90;;;;;;5097347;28;20067;-79
2023/09/02 07:06:42;;;;;;;0.97;0.80;;;15.60;99.90;;;;;;5097265;28;20079;-79
2023/09/02 07:09:08;;;;;;;0.98;0.90;;;15.70;99.90;;;;;;5096711;28;20052;-79
2023/09/02 07:11:34;;;;;;;0.50;0.50;;;15.60;99.90;;;;;;5097190;28;20036;-79
2023/09/02 07:14:00;;;;;;;0.83;0.70;;;15.60;99.90;;;;;;5097408;28;20066;-79
2023/09/02 07:16:26;;;;;;;0.60;0.60;;;15.60;99.90;;;;;;5097104;28;20028;-79
2023/09/02 07:18:52;;;;;;;0.50;0.50;;;15.60;99.90;;;;;;5097282;28;20044;-79
2023/09/02 07:21:22;;;;;;;0.50;0.50;;;15.60;99.90;;;;;;5097312;28;20055;-79
2023/09/02 07:23:48;;;;;;;0.80;0.80;;;15.60;99.90;;;;;;5096662;28;20387;-79
2023/09/02 07:26:14;;;;;;;0.55;0.55;;;15.60;99.90;;;;;;5097207;28;20032;-79
2023/09/02 07:28:42;;;;;;;0.47;0.47;;;15.60;99.90;;;;;;5096900;28;20043;-79
2023/09/02 07:31:11;;;;;;;0.63;0.63;;;15.70;99.90;;;;;;5096844;28;20428;-79
2023/09/02 07:33:37;;;;;;;0.60;0.60;;;15.60;99.90;;;;;;5096743;28;20547;-79
2023/09/02 07:36:13;;;;;;;0.47;0.47;;;15.70;99.90;;;;;;5096705;28;20414;-79
2023/09/02 07:38:40;;;;;;;0.90;0.90;;;15.60;99.90;;;;;;5096690;28;20032;-79
2023/09/02 07:41:06;;;;;;;0.70;0.70;;;15.70;99.90;;;;;;5096605;28;20043;-79
2023/09/02 07:43:32;;;;;;;1.03;0.60;;;15.70;99.90;;;;;;5096620;28;20035;-79
2023/09/02 07:45:58;;;;;;;0.80;0.80;;;15.70;99.90;;;;;;5096474;28;20093;-79
2023/09/02 07:48:24;;;;;;;1.27;0.85;;;15.70;99.90;;;;;;5096684;28;20040;-79
2023/09/02 07:50:49;;;;;;;1.58;0.68;;;15.90;99.90;;;;;;5096292;28;20468;-79
2023/09/02 07:53:15;;;;;;;0.45;0.45;;;15.80;99.90;;;;;;5097166;28;20040;-79
2023/09/02 07:55:41;;;;;;;0.80;0.63;;;15.90;99.90;;;;;;5096759;28;20036;-80
2023/09/02 07:58:06;;;;;;;0.43;0.43;;;15.90;99.90;;;;;;5096305;28;20474;-80
2023/09/02 08:00:36;;;;;;;0.60;0.60;;;15.90;99.90;;;;;;5096502;28;20043;-80
2023/09/02 08:03:03;;;;;;;0.47;0.47;;;16.00;99.90;;;;;;5096140;28;20181;-80
2023/09/02 08:05:28;;;;;;;0.40;0.40;;;16.00;99.90;;;;;;5096156;28;20048;-80
2023/09/02 08:07:55;;;;;;;0.43;0.43;;;16.00;99.90;;;;;;5095832;28;20145;-79
2023/09/02 08:10:20;;;;;;;0.63;0.55;;;16.00;99.90;;;;;;5096011;28;20353;-80
2023/09/02 08:12:46;;;;;;;0.40;0.40;;;16.10;99.90;;;;;;5095991;28;20054;-80
2023/09/02 08:15:13;;;;;;;0.82;0.82;;;16.20;99.90;;;;;;5096064;28;20036;-80
2023/09/02 08:17:40;;;;;;;0.70;0.70;;;16.20;99.90;;;;;;5095766;28;20036;-80
2023/09/02 08:20:08;;;;;;;0.40;0.40;;;16.20;99.90;;;;;;5095875;28;20131;-80
2023/09/02 08:22:34;;;;;;;0.63;0.63;;;16.20;99.90;;;;;;5096391;28;20137;-80
2023/09/02 08:25:00;;;;;;;0.32;0.32;;;16.30;99.90;;;;;;5095854;28;20036;-80
2023/09/02 08:27:25;;;;;;;1.20;0.70;;;16.20;99.90;;;;;;5095747;28;20499;-80
2023/09/02 08:29:52;;;;;;;0.50;0.50;;;16.30;99.90;;;;;;5095322;28;20361;-80
2023/09/02 08:32:18;;;;;;;;;;;16.30;99.90;;;;;;5095755;28;20494;-80
2023/09/02 08:34:43;;;;;;;0.52;0.52;;;16.30;99.90;;;;;;5095346;28;19916;-81
2023/09/02 08:37:09;;;;;;;0.53;0.53;;;16.40;99.90;;;;;;5095895;28;20118;-81
2023/09/02 08:39:34;;;;;;;0.60;0.60;;;16.40;99.90;;;;;;5095518;28;20105;-81
2023/09/02 08:42:00;;;;;;;0.50;0.50;;;16.50;99.90;;;;;;5095439;28;20479;-81
2023/09/02 08:44:33;;;;;;;0.30;0.30;;;16.50;99.90;;;;;;5095420;28;20119;-81
2023/09/02 08:47:01;;;;;;;0.55;0.50;;;16.60;99.90;;;;;;5095075;28;20488;-81
2023/09/02 08:49:27;;;;;;;0.60;0.60;;;16.60;99.90;;;;;;5094792;28;20483;-81
2023/09/02 08:51:54;;;;;;;0.63;0.60;;;16.70;99.90;;;;;;5095304;28;20042;-81
2023/09/02 08:54:21;;;;;;;0.57;0.52;;;16.70;99.90;;;;;;5095033;28;20054;-81
2023/09/02 08:56:48;;;;;;;0.43;0.43;;;16.80;99.90;;;;;;5095130;28;20052;-81
2023/09/02 08:59:14;;;;;;;1.48;0.63;;;16.80;99.90;;;;;;5093919;28;20040;-80
2023/09/02 09:01:44;;;;;;;1.23;0.83;;;16.80;99.90;;;;;;5095057;28;20067;-81
2023/09/02 09:04:13;;;;;;;0.50;0.47;;;16.80;99.90;;;;;;5095065;28;20031;-81
2023/09/02 09:06:40;;;;;;;0.30;0.30;;;16.90;99.90;;;;;;5094990;28;20042;-81
2023/09/02 09:09:08;;;;;;;0.45;0.45;;;16.90;99.90;;;;;;5095602;28;20051;-81
2023/09/02 09:11:36;;;;;;;0.80;0.80;;;16.90;99.90;;;;;;5094921;28;20379;-81
2023/09/02 09:14:04;;;;;;;0.80;0.50;;;16.80;99.90;;;;;;5094716;28;20114;-81
2023/09/02 09:16:35;;;;;;;1.00;0.80;;;16.80;99.90;;;;;;5094727;28;20097;-81
2023/09/02 09:19:02;;;;;;;0.38;0.38;;;16.80;99.90;;;;;;5094710;28;20043;-81
2023/09/02 09:21:27;;;;;;;0.50;0.50;;;16.80;99.90;;;;;;5093810;28;20043;-81
2023/09/02 09:23:53;;;;;;;1.13;0.70;;;16.80;99.90;;;;;;5094976;28;20081;-81
2023/09/02 09:26:21;;;;;;;1.27;0.80;;;16.80;99.90;;;;;;5094762;28;20122;-80
2023/09/02 09:28:53;;;;;;;0.77;0.55;;;16.80;99.90;;;;;;5094519;28;20035;-81
2023/09/02 09:31:19;;;;;;;0.38;0.38;;;16.90;99.90;;;;;;5094522;28;20040;-80
2023/09/02 09:33:53;;;;;;;;;;;16.90;99.90;;;;;;5094798;28;20031;-81
2023/09/02 09:36:21;;;;;;;0.47;0.47;;;17.00;99.90;;;;;;5094444;28;19916;-81
2023/09/02 09:38:54;;;;;;;0.32;0.32;;;17.00;99.90;;;;;;5094352;28;20032;-81
2023/09/02 09:41:20;;;;;;;0.63;0.63;;;17.00;99.90;;;;;;5094371;28;20062;-81
2023/09/02 09:44:10;;;;;;;0.40;0.40;;;17.10;99.90;;;;;;5094279;28;20031;-81
2023/09/02 09:46:48;;;;;;;0.52;0.52;;;17.20;99.90;;;;;;5094558;28;20416;-81
2023/09/02 09:49:23;;;;;;;;;;;17.30;99.90;;;;;;5094826;28;20460;-80
2023/09/02 09:52:08;;;;;;;0.85;0.73;;;17.40;99.90;;;;;;5094204;28;19920;-81
2023/09/02 09:54:47;;;;;;;1.00;0.77;;;17.50;99.90;;;;;;5094857;28;20040;-80
2023/09/02 09:57:31;;;;;;;0.55;0.40;;;17.60;99.90;;;;;;5094174;28;20483;-81
2023/09/02 09:59:57;;;;;;;0.85;0.65;;;17.70;99.90;;;;;;5094063;28;20052;-81
2023/09/02 10:02:24;;;;;;;0.63;0.63;;;17.80;99.90;;;;;;5093982;28;20082;-81
2023/09/02 10:04:57;;;;;;;0.45;0.45;;;17.80;99.90;;;;;;5094069;28;20043;-81
2023/09/02 10:07:25;;;;;;;0.50;0.50;;;17.90;99.90;;;;;;5094333;28;20056;-81
2023/09/02 10:09:53;;;;;;;0.80;0.60;;;17.90;99.90;;;;;;5094190;28;20124;-81
2023/09/02 10:12:19;;;;;;;0.77;0.60;;;18.00;99.90;;;;;;5093991;28;20119;-81
2023/09/02 10:14:47;;;;;;;2.17;0.57;;;18.10;99.90;;;;;;5126730;27;20130;-81
2023/09/02 10:17:13;;;;;;;5.45;0.50;;;18.10;99.90;;;;;;5093920;28;20052;-80
2023/09/02 10:19:40;;;;;;;;;;;18.10;99.90;;;;;;5094297;28;20093;-81
2023/09/02 10:22:06;;;;;;;0.73;0.50;;;18.10;99.90;;;;;;5094199;28;19923;-80
2023/09/02 10:24:44;;;;;;;0.43;0.43;;;18.20;99.90;;;;;;5093725;28;20036;-80
2023/09/02 10:27:18;;;;;;;0.82;0.82;;;18.20;99.90;;;;;;5093922;28;20040;-80
2023/09/02 10:29:46;;;;;;;0.40;0.40;;;18.30;99.90;;;;;;5093457;28;20036;-80
2023/09/02 10:32:13;;;;;;;0.32;0.32;;;18.40;99.90;;;;;;5095705;28;20046;-80
2023/09/02 10:35:05;;;;;;;1.45;1.05;;;18.50;99.90;;;;;;5097969;28;20375;-80
2023/09/02 10:37:44;;;;;;;0.60;0.60;;;18.60;99.90;;;;;;5097626;28;20032;-80
2023/09/02 10:40:15;;;;;;;0.73;0.70;;;18.70;99.90;;;;;;5097773;28;20472;-80
2023/09/02 10:42:41;;;;;;;1.20;0.93;;;18.70;99.90;;;;;;5098013;28;20145;-80
2023/09/02 10:45:07;;;;;;;0.87;0.67;;;18.80;99.90;;;;;;5097898;28;20113;-80
2023/09/02 10:47:32;;;;;;;0.40;0.40;;;18.80;99.90;;;;;;5097688;28;20040;-80
2023/09/02 10:49:59;;;;;;;0.40;0.30;;;18.90;99.90;;;;;;5097784;28;20082;-80
2023/09/02 10:52:24;;;;;;;0.75;0.47;;;19.00;99.90;;;;;;5097512;28;20040;-80
2023/09/02 10:55:10;;;;;;;0.60;0.57;;;19.10;99.90;;;;;;5096080;28;20341;-80
2023/09/02 10:57:50;;;;;;;0.77;0.65;;;19.10;99.90;;;;;;5098050;28;20042;-80
2023/09/02 11:00:18;;;;;;;0.55;0.55;;;19.20;99.90;;;;;;5097688;28;20079;-80
2023/09/02 11:02:45;;;;;;;0.40;0.40;;;19.20;99.90;;;;;;5097462;28;20050;-80
2023/09/02 11:05:12;;;;;;;0.90;0.68;;;19.20;99.90;;;;;;5096219;28;20447;-80
2023/09/02 11:07:39;;;;;;;2.42;0.90;;;19.30;99.90;;;;;;5097202;28;20446;-80
2023/09/02 11:10:06;;;;;;;0.77;0.77;;;19.30;99.90;;;;;;5097268;28;20047;-80
2023/09/02 11:12:33;;;;;;;1.75;0.52;;;19.40;99.90;;;;;;5097397;28;20086;-80
2023/09/02 11:15:07;;;;;;;0.52;0.50;;;19.40;99.90;;;;;;5097077;28;20044;-80
2023/09/02 11:17:37;;;;;;;0.40;0.40;;;19.50;99.90;;;;;;5096812;28;20179;-80
2023/09/02 11:20:05;;;;;;;0.55;0.50;;;19.50;99.90;;;;;;5097379;28;20051;-80
2023/09/02 11:22:46;;;;;;;0.68;0.63;;;19.60;99.90;;;;;;5097274;28;20040;-80
2023/09/02 11:25:38;;;;;;;0.52;0.52;;;19.60;99.90;;;;;;5096964;28;20119;-80
2023/09/02 11:28:17;;;;;;;0.40;0.40;;;19.50;99.90;;;;;;5095816;28;20040;-80
2023/09/02 11:31:06;;;;;;;0.30;0.30;;;19.50;99.90;;;;;;5097266;28;20036;-80
2023/09/02 11:33:39;;;;;;;0.68;0.68;;;19.40;99.90;;;;;;5096761;28;20040;-80
2023/09/02 11:36:06;;;;;;;0.68;0.68;;;19.30;99.90;;;;;;5096991;28;20497;-80
2023/09/02 11:38:34;;;;;;;0.93;0.68;;;19.30;99.90;;;;;;5095499;28;20039;-80
2023/09/02 11:41:00;;;;;;;1.02;0.70;;;19.30;99.90;;;;;;5096680;28;20095;-80
2023/09/02 11:43:30;;;;;;;0.93;0.63;;;19.40;99.90;;;;;;5095613;28;20044;-80
2023/09/02 11:45:57;;;;;;;0.63;0.60;;;19.50;99.90;;;;;;5096600;28;20044;-80
2023/09/02 11:48:27;;;;;;;0.90;0.65;;;19.70;99.90;;;;;;5096389;28;20040;-80
2023/09/02 11:50:54;;;;;;;0.40;0.40;;;19.70;99.90;;;;;;5096490;28;20075;-80
2023/09/02 11:53:20;;;;;;;1.73;0.60;;;19.80;99.90;;;;;;5096256;28;20044;-80
2023/09/02 11:55:46;;;;;;;1.20;0.67;;;20.00;99.90;;;;;;5096552;28;20101;-80
2023/09/02 11:58:14;;;;;;;0.70;0.70;;;20.10;99.90;;;;;;5096629;28;20460;-80
2023/09/02 12:00:43;;;;;;;0.70;0.65;;;20.10;99.90;;;;;;5096525;28;20032;-80
2023/09/02 12:03:09;;;;;;;0.65;0.65;;;20.10;99.90;;;;;;5096089;28;20494;-80
2023/09/02 12:05:46;;;;;;;0.55;0.55;;;20.10;99.90;;;;;;5096174;28;20051;-80
2023/09/02 12:08:12;;;;;;;0.63;0.63;;;20.00;99.90;;;;;;5095804;28;20036;-80
2023/09/02 12:10:38;;;;;;;0.75;0.75;;;20.10;99.90;;;;;;5096330;28;20376;-80
2023/09/02 12:13:03;;;;;;;0.70;0.70;;;20.10;99.90;;;;;;5096022;28;20039;-80
2023/09/02 12:15:32;;;;;;;0.80;0.80;;;20.10;99.90;;;;;;5095647;28;20058;-80
2023/09/02 12:17:57;;;;;;;2.90;1.15;;;20.10;99.90;;;;;;5095895;28;20044;-80
2023/09/02 12:20:23;;;;;;;1.23;0.57;;;20.10;99.90;;;;;;5095525;28;20047;-80
2023/09/02 12:22:49;;;;;;;0.60;0.60;;;20.20;99.90;;;;;;5095804;28;20448;-80
2023/09/02 12:25:20;;;;;;;0.68;0.60;;;20.30;99.90;;;;;;5095580;28;20376;-80
2023/09/02 12:27:47;;;;;;;1.00;0.40;;;20.40;99.90;;;;;;5095539;28;20173;-80
2023/09/02 12:30:13;;;;;;;2.03;0.55;;;20.40;99.90;;;;;;5095679;28;20329;-80
2023/09/02 12:32:39;;;;;;;1.17;0.40;;;20.60;99.90;;;;;;5095686;28;20096;-79
2023/09/02 12:35:09;;;;;;;1.00;1.00;;;20.60;99.90;;;;;;5095400;28;20535;-80
2023/09/02 12:37:35;;;;;;;0.50;0.50;;;20.80;99.90;;;;;;5095510;28;20032;-80
2023/09/02 12:40:17;;;;;;;0.77;0.50;;;21.00;99.90;;;;;;5095494;28;20074;-80
2023/09/02 12:42:53;;;;;;;0.65;0.65;;;21.10;99.90;;;;;;5095742;28;20039;-80
2023/09/02 12:45:27;;;;;;;0.38;0.38;;;21.20;99.90;;;;;;5095481;28;20406;-80
2023/09/02 12:47:54;;;;;;;0.30;0.30;;;21.30;99.90;;;;;;5111378;28;20372;-80
2023/09/02 12:50:22;;;;;;;0.30;0.30;;;21.40;99.90;;;;;;5095263;28;20036;-80
2023/09/02 12:52:57;;;;;;;0.57;0.50;;;21.40;99.90;;;;;;5095365;28;20075;-80